Terminal Aerodrome Forecast
Issued by NWS

Home | Current Version | Previous Version | Text Only | Print | Product List | Glossary On
Versions: 1 2 3 4 5 6 7 8 9 10 11 12 13 14 15 16 17 18
000
FTUS43 KIND 301100
TAFHUF
TAF
KHUF 301123Z 3012/0112 01007KT P6SM OVC007
      TEMPO 3012/3014 1 1/2SM BR OVC004
     FM301500 01008KT P6SM BKN020
     FM301800 01008KT P6SM SCT030 SCT250
     FM010100 02004KT P6SM BKN250
     FM010800 06003KT 4SM BR BKN250=

USA.gov is the U.S. government's official web portal to all federal, state and local government web resources and services.